Latest Weather Observations for Lake Macquarie - Cooranbong

IDN60901

Issued at 7:17 pm EDT Tuesday 27 January 2015 (issued every 10 minutes, with the page automatically refreshed every 10 minutes)

About weather observations | Map of Sydney area stations | Latest observations for Sydney area | Other Formats
Station Details ID: 061412 Name: LAKE MACQUARIE AWS Lat: -33.09 Lon: 151.46 Height: 6.0 m
Data from the previous 72 hours. | See also: Recent months at Lake Macquarie - Cooranbong
Date/Time
EDT
Tmp

°C
App
Tmp
°C
Dew
Point
°C
Rel
Hum
%
Delta-T

°C
Wind Press
QNH
hPa
Press
MSL
hPa
Rain
since
9 am
mm
Dir
 
Spd
km/h
Gust
km/h
Spd
kts
Gust
kts
27/07:00pm 19.4 21.7 17.7 90 1.0 NNW 2 2 1 1 1011.4 1011.4 16.8
27/06:30pm 19.3 21.9 17.4 89 1.2 CALM 0 4 0 2 1011.2 1011.2 16.8
27/06:00pm 19.3 21.2 17.6 90 1.0 NNW 4 6 2 3 1011.2 1011.2 16.8
27/05:30pm 19.5 21.9 18.0 91 0.9 NE 2 6 1 3 1011.4 1011.4 16.8
27/05:00pm 19.6 21.5 17.7 89 1.2 N 4 6 2 3 1011.6 1011.6 16.6
27/04:30pm 19.9 21.8 17.7 87 1.4 N 4 7 2 4 1011.9 1011.9 16.4
27/04:00pm 20.4 21.9 17.6 84 1.7 NNE 6 11 3 6 1012.0 1012.0 16.2
27/03:30pm 20.2 22.0 17.4 84 1.7 ENE 4 9 2 5 1011.6 1011.6 16.2
27/03:00pm 20.2 21.3 17.2 83 1.8 ENE 7 11 4 6 1011.9 1011.9 16.2
27/02:30pm 20.2 21.3 17.0 82 1.9 E 7 13 4 7 1012.3 1012.3 16.2
27/02:00pm 20.2 21.1 17.6 85 1.6 E 9 15 5 8 1012.5 1012.5 16.2
27/01:30pm 19.7 20.3 17.8 89 1.2 E 11 17 6 9 1012.8 1012.8 16.2
27/01:00pm 19.3 20.5 18.3 94 0.6 ESE 9 15 5 8 1012.9 1012.9 16.2
27/12:30pm 18.7 21.5 17.9 95 0.5 CALM 0 4 0 2 1012.9 1012.9 15.8
27/12:00pm 18.5 20.7 17.5 94 0.6 SSE 2 6 1 3 1013.3 1013.3 13.4
27/11:30am 18.2 20.3 17.2 94 0.6 SW 2 7 1 4 1013.7 1013.7 11.6
27/11:00am 18.6 20.5 17.6 94 0.6 S 4 7 2 4 1013.2 1013.2 7.8
27/10:30am 19.0 20.5 17.7 92 0.8 SW 6 9 3 5 1013.4 1013.4 2.2
27/10:00am 19.2 20.6 17.3 89 1.2 SE 6 11 3 6 1012.9 1012.9 0.6
27/09:30am 19.6 21.8 18.3 92 0.8 ESE 4 7 2 4 1012.7 1012.7 0.6
27/09:00am 19.7 22.3 18.5 93 0.7 S 2 4 1 2 1012.9 1012.9 40.6
27/08:30am 19.5 22.1 18.5 94 0.6 ENE 2 6 1 3 1012.6 1012.6 40.6
27/08:00am 19.1 20.8 18.1 94 0.6 ENE 6 13 3 7 1012.5 1012.5 40.4
27/07:30am 19.2 20.8 18.2 94 0.6 ENE 7 15 4 8 1012.2 1012.2 36.6
27/07:00am 19.5 22.6 18.7 95 0.5 CALM 0 0 0 0 1012.1 1012.1 27.6
27/06:30am 19.1 22.0 18.1 94 0.6 CALM 0 0 0 0 1011.8 1011.8 26.6
27/06:00am 18.9 21.2 17.7 93 0.7 NE 2 4 1 2 1011.7 1011.7 24.6
27/05:30am 19.0 21.0 17.8 93 0.7 ESE 4 9 2 5 1011.5 1011.5 23.8
27/05:00am 19.6 21.9 18.6 94 0.6 N 4 7 2 4 1011.4 1011.4 22.2
27/04:30am 19.8 23.1 19.0 95 0.5 CALM 0 0 0 0 1011.3 1011.3 20.6
27/04:00am 19.8 22.3 19.0 95 0.5 NNW 4 7 2 4 1011.4 1011.4 16.2
27/03:30am 19.8 23.1 19.0 95 0.5 CALM 0 4 0 2 1011.4 1011.4 13.8
27/03:00am 19.8 22.7 19.0 95 0.5 SSW 2 7 1 4 1011.7 1011.7 13.2
27/02:30am 19.9 23.2 19.1 95 0.5 CALM 0 0 0 0 1011.9 1011.9 11.6
27/02:00am 19.9 22.7 18.9 94 0.6 NW 2 4 1 2 1012.2 1012.2 11.6
27/01:30am 19.8 22.2 18.8 94 0.6 N 4 6 2 3 1012.4 1012.4 11.6
27/01:00am 19.8 23.0 18.8 94 0.6 CALM 0 0 0 0 1012.8 1012.8 11.6
27/12:30am 19.8 23.0 18.8 94 0.6 CALM 0 2 0 1 1013.1 1013.1 11.4
 
Date/Time
EDT
Tmp

°C
App
Tmp
°C
Dew
Point
°C
Rel
Hum
%
Delta-T

°C
Wind Press
QNH
hPa
Press
MSL
hPa
Rain
since
9 am
mm
Dir
 
Spd
km/h
Gust
km/h
Spd
kts
Gust
kts
26/11:30pm 19.7 22.5 18.9 95 0.5 S 2 4 1 2 1013.6 1013.6 11.2
26/11:00pm 19.7 22.5 18.9 95 0.5 SSW 2 4 1 2 1013.9 1013.9 11.2
26/10:30pm 19.7 22.8 18.7 94 0.6 CALM 0 4 0 2 1014.2 1014.2 9.4
26/10:00pm 19.7 22.4 18.7 94 0.6 SW 2 4 1 2 1013.9 1013.9 8.6
26/09:30pm 19.8 22.6 18.8 94 0.6 SW 2 6 1 3 1014.2 1014.2 8.6
26/09:00pm 19.9 22.7 18.9 94 0.6 SSW 2 6 1 3 1014.1 1014.1 8.6
26/08:30pm 19.9 23.1 18.9 94 0.6 CALM 0 6 0 3 1013.9 1013.9 8.6
26/08:00pm 19.9 23.0 18.7 93 0.7 CALM 0 6 0 3 1013.6 1013.6 8.4
26/07:30pm 20.0 23.2 18.8 93 0.8 CALM 0 6 0 3 1013.1 1013.1 7.6
26/07:00pm 19.9 22.6 18.7 93 0.7 SSW 2 4 1 2 1013.0 1013.0 7.6
26/06:30pm 19.8 22.1 18.6 93 0.7 SW 4 7 2 4 1012.8 1012.8 7.6
26/06:00pm 19.9 21.8 18.6 92 0.8 S 6 7 3 4 1012.6 1012.6 7.6
26/05:30pm 20.1 22.0 18.6 91 0.9 S 6 11 3 6 1012.7 1012.7 6.2
26/05:00pm 20.0 22.3 18.5 91 0.9 SSE 4 11 2 6 1012.8 1012.8 6.2
26/04:30pm 20.5 22.6 19.0 91 0.9 SE 6 11 3 6 1012.8 1012.8 6.0
26/04:00pm 20.6 22.5 18.5 88 1.3 SSE 6 11 3 6 1013.0 1013.0 5.6
26/03:30pm 20.9 22.9 18.8 88 1.3 S 6 9 3 5 1012.5 1012.5 5.6
26/03:00pm 20.6 22.6 18.7 89 1.2 S 6 15 3 8 1012.5 1012.5 5.6
26/02:30pm 20.5 22.7 19.2 92 0.8 SSE 6 11 3 6 1012.5 1012.5 5.6
26/02:00pm 20.7 23.0 19.5 93 0.8 SSE 6 11 3 6 1012.6 1012.6 5.4
26/01:30pm 20.8 22.9 19.3 91 0.9 S 7 13 4 7 1012.8 1012.8 4.4
26/01:00pm 21.5 24.1 20.1 92 0.9 SSE 6 9 3 5 1012.8 1012.8 3.6
26/12:30pm 21.0 23.8 19.7 92 0.8 SSW 4 7 2 4 1013.1 1013.1 3.6
26/12:00pm 20.8 23.2 19.6 93 0.8 SSE 6 11 3 6 1013.1 1013.1 3.4
26/11:30am 20.8 23.2 19.6 93 0.8 SSE 6 13 3 7 1013.1 1013.1 3.0
26/11:00am 20.8 23.6 19.6 93 0.8 S 4 13 2 7 1013.0 1013.0 2.6
26/10:30am 20.4 22.6 19.1 92 0.8 SW 6 7 3 4 1013.2 1013.2 1.8
26/10:00am 20.4 22.5 18.9 91 0.9 SSW 6 7 3 4 1013.1 1013.1 1.4
26/09:30am 20.9 23.7 19.6 92 0.8 SSE 4 6 2 3 1012.8 1012.8 1.0
26/09:00am 20.8 22.9 18.9 89 1.2 SW 6 11 3 6 1012.5 1012.5 0.6
26/08:30am 21.4 23.8 18.8 85 1.6 SSW 4 6 2 3 1012.1 1012.1 0.0
26/08:00am 21.5 24.1 18.5 83 1.9 S 2 6 1 3 1011.9 1011.9 0.0
26/07:30am 21.3 23.6 18.5 84 1.8 SSW 4 6 2 3 1011.9 1011.9 0.0
26/07:00am 21.4 23.2 18.2 82 2.0 SSW 6 9 3 5 1011.3 1011.3 0.0
26/06:30am 22.1 24.1 17.9 77 2.6 SSW 4 11 2 6 1010.8 1010.8 0.0
26/06:00am 22.4 23.9 17.5 74 3.0 WSW 6 9 3 5 1010.5 1010.5 0.0
26/05:30am 22.4 24.5 18.0 76 2.7 SSW 4 9 2 5 1010.0 1010.0 0.0
26/05:00am 22.6 24.2 17.9 75 2.9 SSW 6 13 3 7 1009.6 1009.6 0.0
26/04:30am 22.6 24.6 17.9 75 2.9 SSW 4 9 2 5 1009.5 1009.5 0.0
26/04:00am 22.8 25.0 18.3 76 2.8 SSW 4 9 2 5 1009.6 1009.6 0.0
26/03:30am 22.9 24.7 18.4 76 2.8 SSW 6 15 3 8 1009.4 1009.4 0.0
26/03:00am 23.0 24.9 18.5 76 2.8 SSW 6 11 3 6 1009.3 1009.3 0.0
26/02:30am 23.2 25.1 18.9 77 2.7 S 7 17 4 9 1009.4 1009.4 0.0
26/02:00am 23.2 25.3 18.9 77 2.7 S 6 11 3 6 1009.0 1009.0 0.0
26/01:30am 23.5 25.1 19.2 77 2.7 SSW 9 17 5 9 1009.1 1009.1 0.0
26/01:00am 23.7 25.4 19.4 77 2.8 SSW 9 19 5 10 1009.1 1009.1 0.0
26/12:30am 23.8 25.6 19.5 77 2.8 S 9 22 5 12 1009.1 1009.1 0.0
26/12:00am 24.1 25.6 19.8 77 2.8 S 11 22 6 12 1009.0 1009.0 0.0
 
Date/Time
EDT
Tmp

°C
App
Tmp
°C
Dew
Point
°C
Rel
Hum
%
Delta-T

°C
Wind Press
QNH
hPa
Press
MSL
hPa
Rain
since
9 am
mm
Dir
 
Spd
km/h
Gust
km/h
Spd
kts
Gust
kts
25/11:30pm 24.3 26.4 20.2 78 2.7 S 9 19 5 10 1009.0 1009.0 0.0
25/11:00pm 24.5 27.2 20.6 79 2.5 S 7 19 4 10 1008.7 1008.7 0.0
25/10:30pm 24.6 27.3 20.7 79 2.6 S 7 15 4 8 1007.9 1007.8 0.0
25/10:00pm 24.8 26.7 19.8 74 3.2 SSW 9 19 5 10 1007.5 1007.4 0.0
25/09:30pm 25.3 27.4 19.4 70 3.8 SSE 7 17 4 9 1006.7 1006.6 0.0
25/09:00pm 25.1 27.7 18.5 67 4.2 SSW 2 9 1 5 1005.7 1005.6 0.0
25/08:30pm 26.5 29.1 18.4 61 5.2 SSE 2 7 1 4 1004.4 1004.3 0.0
25/08:00pm 27.5 29.4 16.8 52 6.7 SE 2 6 1 3 1003.8 1003.7 0.0
25/07:30pm 28.9 30.3 16.5 47 7.7 ESE 4 7 2 4 1003.4 1003.3 0.0
25/07:00pm 30.1 31.0 16.5 44 8.5 ESE 7 13 4 7 1002.9 1002.8 0.0
25/06:30pm 30.1 30.6 16.5 44 8.5 ESE 9 15 5 8 1002.5 1002.4 0.0
25/06:00pm 30.3 31.5 17.4 46 8.2 ESE 7 9 4 5 1001.9 1001.8 0.0
25/05:30pm 30.8 32.1 18.5 47 7.9 ESE 9 19 5 10 1001.8 1001.7 0.0
25/05:00pm 31.1 33.4 19.8 51 7.5 ESE 7 17 4 9 1001.5 1001.4 0.0
25/04:30pm 31.5 32.1 18.5 46 8.4 E 13 22 7 12 1001.4 1001.3 0.0
25/04:00pm 30.7 31.4 18.8 49 7.7 SSE 13 24 7 13 1002.1 1002.0 0.0
25/03:30pm 32.5 33.9 20.4 49 8.1 E 13 22 7 12 1001.2 1001.1 0.0
25/03:00pm 33.1 34.1 20.3 47 8.6 SE 15 32 8 17 1001.3 1001.2 0.0
25/02:30pm 35.1 35.9 16.4 32 11.9 WNW 7 24 4 13 1001.6 1001.5 0.0
25/02:00pm 33.8 35.3 16.6 35 11.0 NE 4 7 2 4 1001.7 1001.6 0.0
25/01:30pm 34.2 36.4 19.1 41 9.9 S 6 9 3 5 1002.2 1002.1 0.0
25/01:00pm 33.4 34.5 17.1 37 10.4 WNW 7 19 4 10 1002.6 1002.5 0.0
25/12:30pm 32.6 33.9 18.4 43 9.2 WNW 9 17 5 9 1002.8 1002.7 0.0
25/12:00pm 32.1 33.4 17.6 42 9.3 SW 7 13 4 7 1003.0 1002.9 0.0
25/11:30am 31.2 32.3 17.9 45 8.5 NW 9 13 5 7 1003.2 1003.1 0.0
25/11:00am 30.7 32.2 18.1 47 8.1 NNW 7 11 4 6 1003.0 1002.9 0.0
25/10:30am 29.9 32.1 19.3 53 6.9 NNW 6 11 3 6 1003.0 1002.9 0.0
25/10:00am 29.0 31.0 18.7 53 6.7 NNW 6 9 3 5 1003.2 1003.1 0.0
25/09:30am 27.5 31.6 20.8 67 4.4 CALM 0 4 0 2 1003.4 1003.3 0.0
25/09:00am 25.7 28.9 19.8 70 3.8 NE 2 6 1 3 1003.5 1003.4 1.0
25/08:30am 23.9 26.7 19.6 77 2.8 NNE 4 6 2 3 1003.6 1003.5 1.0
25/08:00am 21.8 25.6 20.1 90 1.1 CALM 0 0 0 0 1003.7 1003.6 1.0
25/07:30am 21.6 25.1 19.5 88 1.3 CALM 0 0 0 0 1003.7 1003.6 1.0
25/07:00am 21.1 24.5 20.1 94 0.6 NNW 2 6 1 3 1003.3 1003.2 1.0
25/06:30am 20.4 23.4 19.2 93 0.8 N 2 2 1 1 1003.0 1002.9 1.0
25/06:00am 20.6 23.3 19.4 93 0.8 WNW 4 6 2 3 1002.8 1002.7 1.0
25/05:30am 20.4 23.4 19.2 93 0.8 N 2 4 1 2 1002.7 1002.6 1.0
25/05:00am 20.8 23.4 19.3 91 1.0 NNW 4 6 2 3 1002.6 1002.5 1.0
25/04:30am 21.1 23.5 19.7 92 0.9 NNW 6 7 3 4 1002.6 1002.5 1.0
25/04:00am 21.2 24.3 20.2 94 0.6 NNW 4 7 2 4 1002.6 1002.5 1.0
25/03:30am 21.4 24.2 20.4 94 0.6 N 6 9 3 5 1002.6 1002.5 1.0
25/03:00am 21.4 25.3 20.4 94 0.6 CALM 0 0 0 0 1002.6 1002.5 1.0
25/02:30am 21.5 25.3 20.1 92 0.9 CALM 0 0 0 0 1003.3 1003.2 1.0
25/02:00am 21.7 25.5 20.2 91 1.0 CALM 0 0 0 0 1003.9 1003.8 1.0
25/01:30am 22.0 25.2 20.5 91 1.0 N 4 7 2 4 1004.5 1004.4 1.0
25/01:00am 22.4 25.6 20.5 89 1.2 N 4 6 2 3 1005.2 1005.1 0.8
25/12:30am 22.9 26.5 20.6 87 1.5 N 2 4 1 2 1006.0 1005.9 0.2
25/12:00am 23.2 26.5 20.7 86 1.6 N 4 6 2 3 1006.4 1006.3 0.0
 
Date/Time
EDT
Tmp

°C
App
Tmp
°C
Dew
Point
°C
Rel
Hum
%
Delta-T

°C
Wind Press
QNH
hPa
Press
MSL
hPa
Rain
since
9 am
mm
Dir
 
Spd
km/h
Gust
km/h
Spd
kts
Gust
kts
24/11:30pm 24.2 27.5 20.7 81 2.3 W 4 6 2 3 1006.8 1006.7 0.0
24/11:00pm 24.1 28.1 20.6 81 2.3 CALM 0 6 0 3 1006.5 1006.4 0.0
24/10:30pm 24.3 27.5 20.6 80 2.4 SW 4 6 2 3 1006.4 1006.3 0.0
24/10:00pm 24.3 28.1 20.2 78 2.7 CALM 0 0 0 0 1006.5 1006.4 0.0
24/09:30pm 24.5 27.7 19.8 75 3.0 E 2 4 1 2 1005.9 1005.8 0.0
24/09:00pm 24.6 27.9 19.9 75 3.0 ENE 2 6 1 3 1005.5 1005.4 0.0
24/08:30pm 24.8 27.7 19.8 74 3.2 ENE 4 7 2 4 1005.1 1005.0 0.0
24/08:00pm 25.0 27.6 20.0 74 3.2 E 6 11 3 6 1004.6 1004.5 0.0
24/07:30pm 25.4 28.3 19.8 71 3.6 E 4 11 2 6 1004.3 1004.2 0.0

Latest Capital City Observations: Canberra | Sydney | Melbourne | Brisbane | Adelaide | Perth | Hobart | Darwin

Other Formats:

Comma delimited format used in spreadsheet applications
http://www.bom.gov.au/fwo/IDN60901/IDN60901.95767.axf

JavaScript Object Notation format (JSON) in row-major order
http://www.bom.gov.au/fwo/IDN60901/IDN60901.95767.json